sensor_id;sensor_type;location;lat;lon;timestamp;temperature;humidity
51837;DHT22;38941;53.254;6.600;2022-08-20T00:00:16;20.00;99.90
51837;DHT22;38941;53.254;6.600;2022-08-20T00:02:17;20.00;99.90
51837;DHT22;38941;53.254;6.600;2022-08-20T00:04:17;20.00;99.90
51837;DHT22;38941;53.254;6.600;2022-08-20T00:06:21;20.00;99.90
51837;DHT22;38941;53.254;6.600;2022-08-20T00:08:23;20.00;99.90
51837;DHT22;38941;53.254;6.600;2022-08-20T00:10:25;20.00;99.90
51837;DHT22;38941;53.254;6.600;2022-08-20T00:12:26;20.00;99.90
51837;DHT22;38941;53.254;6.600;2022-08-20T00:14:27;19.90;99.90
51837;DHT22;38941;53.254;6.600;2022-08-20T00:16:31;19.90;99.90
51837;DHT22;38941;53.254;6.600;2022-08-20T00:18:32;19.90;99.90
51837;DHT22;38941;53.254;6.600;2022-08-20T00:20:42;19.90;99.90
51837;DHT22;38941;53.254;6.600;2022-08-20T00:22:43;19.90;99.90
51837;DHT22;38941;53.254;6.600;2022-08-20T00:24:43;19.80;99.90
51837;DHT22;38941;53.254;6.600;2022-08-20T00:26:44;19.80;99.90
51837;DHT22;38941;53.254;6.600;2022-08-20T00:28:45;19.80;99.90
51837;DHT22;38941;53.254;6.600;2022-08-20T00:30:47;19.80;99.90
51837;DHT22;38941;53.254;6.600;2022-08-20T00:32:55;19.80;99.90
51837;DHT22;38941;53.254;6.600;2022-08-20T00:34:58;19.80;99.90
51837;DHT22;38941;53.254;6.600;2022-08-20T00:36:59;19.80;99.90
51837;DHT22;38941;53.254;6.600;2022-08-20T00:39:00;19.80;99.90
51837;DHT22;38941;53.254;6.600;2022-08-20T00:41:01;19.80;99.90
51837;DHT22;38941;53.254;6.600;2022-08-20T00:43:06;19.80;99.90
51837;DHT22;38941;53.254;6.600;2022-08-20T00:45:07;19.80;99.90
51837;DHT22;38941;53.254;6.600;2022-08-20T00:47:08;19.80;99.90
51837;DHT22;38941;53.254;6.600;2022-08-20T00:49:17;19.70;99.90
51837;DHT22;38941;53.254;6.600;2022-08-20T00:53:51;19.80;99.90
51837;DHT22;38941;53.254;6.600;2022-08-20T00:55:54;19.70;99.90
51837;DHT22;38941;53.254;6.600;2022-08-20T00:57:57;19.70;99.90
51837;DHT22;38941;53.254;6.600;2022-08-20T00:59:58;19.70;99.90
51837;DHT22;38941;53.254;6.600;2022-08-20T01:02:01;19.70;99.90
51837;DHT22;38941;53.254;6.600;2022-08-20T01:04:03;19.60;99.90
51837;DHT22;38941;53.254;6.600;2022-08-20T01:06:04;19.60;99.90
51837;DHT22;38941;53.254;6.600;2022-08-20T01:08:06;19.60;99.90
51837;DHT22;38941;53.254;6.600;2022-08-20T01:10:13;19.50;99.90
51837;DHT22;38941;53.254;6.600;2022-08-20T01:12:15;19.50;99.90
51837;DHT22;38941;53.254;6.600;2022-08-20T01:14:16;19.50;99.90
51837;DHT22;38941;53.254;6.600;2022-08-20T01:16:29;19.50;99.90
51837;DHT22;38941;53.254;6.600;2022-08-20T01:18:31;19.50;99.90
51837;DHT22;38941;53.254;6.600;2022-08-20T01:20:57;19.40;99.90
51837;DHT22;38941;53.254;6.600;2022-08-20T01:27:57;19.30;99.90
51837;DHT22;38941;53.254;6.600;2022-08-20T01:30:00;19.20;99.90
51837;DHT22;38941;53.254;6.600;2022-08-20T01:32:03;19.20;99.90
51837;DHT22;38941;53.254;6.600;2022-08-20T01:34:11;19.10;99.90
51837;DHT22;38941;53.254;6.600;2022-08-20T01:36:16;19.10;99.90
51837;DHT22;38941;53.254;6.600;2022-08-20T01:38:17;19.00;99.90
51837;DHT22;38941;53.254;6.600;2022-08-20T01:40:30;19.00;99.90
51837;DHT22;38941;53.254;6.600;2022-08-20T01:42:41;18.90;99.90
51837;DHT22;38941;53.254;6.600;2022-08-20T01:44:45;18.80;99.90
51837;DHT22;38941;53.254;6.600;2022-08-20T01:46:49;18.80;99.90
51837;DHT22;38941;53.254;6.600;2022-08-20T01:48:51;18.80;99.90
51837;DHT22;38941;53.254;6.600;2022-08-20T01:51:03;18.80;99.90
51837;DHT22;38941;53.254;6.600;2022-08-20T01:53:17;18.70;99.90
51837;DHT22;38941;53.254;6.600;2022-08-20T01:55:19;18.70;99.90
51837;DHT22;38941;53.254;6.600;2022-08-20T01:57:23;18.60;99.90
51837;DHT22;38941;53.254;6.600;2022-08-20T01:59:26;18.60;99.90
51837;DHT22;38941;53.254;6.600;2022-08-20T02:01:31;18.60;99.90
51837;DHT22;38941;53.254;6.600;2022-08-20T02:03:34;18.60;99.90
51837;DHT22;38941;53.254;6.600;2022-08-20T02:05:35;18.60;99.90
51837;DHT22;38941;53.254;6.600;2022-08-20T02:07:37;18.60;99.90
51837;DHT22;38941;53.254;6.600;2022-08-20T02:09:40;18.60;99.90
51837;DHT22;38941;53.254;6.600;2022-08-20T02:11:40;18.60;99.90
51837;DHT22;38941;53.254;6.600;2022-08-20T02:13:41;18.60;99.90
51837;DHT22;38941;53.254;6.600;2022-08-20T02:15:42;18.60;99.90
51837;DHT22;38941;53.254;6.600;2022-08-20T02:17:43;18.50;99.90
51837;DHT22;38941;53.254;6.600;2022-08-20T02:19:53;18.50;99.90
51837;DHT22;38941;53.254;6.600;2022-08-20T02:21:59;18.50;99.90
51837;DHT22;38941;53.254;6.600;2022-08-20T02:24:02;18.40;99.90
51837;DHT22;38941;53.254;6.600;2022-08-20T02:26:03;18.40;99.90
51837;DHT22;38941;53.254;6.600;2022-08-20T02:28:10;18.40;99.90
51837;DHT22;38941;53.254;6.600;2022-08-20T02:30:18;18.40;99.90
51837;DHT22;38941;53.254;6.600;2022-08-20T02:32:20;18.30;99.90
51837;DHT22;38941;53.254;6.600;2022-08-20T02:34:21;18.30;99.90
51837;DHT22;38941;53.254;6.600;2022-08-20T02:36:22;18.30;99.90
51837;DHT22;38941;53.254;6.600;2022-08-20T02:38:24;18.20;99.90
51837;DHT22;38941;53.254;6.600;2022-08-20T02:40:26;18.20;99.90
51837;DHT22;38941;53.254;6.600;2022-08-20T02:42:27;18.20;99.90
51837;DHT22;38941;53.254;6.600;2022-08-20T02:44:28;18.20;99.90
51837;DHT22;38941;53.254;6.600;2022-08-20T02:46:29;18.10;99.90
51837;DHT22;38941;53.254;6.600;2022-08-20T02:48:31;18.10;99.90
51837;DHT22;38941;53.254;6.600;2022-08-20T02:50:33;18.10;99.90
51837;DHT22;38941;53.254;6.600;2022-08-20T02:52:33;18.10;99.90
51837;DHT22;38941;53.254;6.600;2022-08-20T02:54:34;18.10;99.90
51837;DHT22;38941;53.254;6.600;2022-08-20T02:56:35;18.00;99.90
51837;DHT22;38941;53.254;6.600;2022-08-20T02:58:37;18.00;99.90
51837;DHT22;38941;53.254;6.600;2022-08-20T03:00:40;18.00;99.90
51837;DHT22;38941;53.254;6.600;2022-08-20T03:02:41;17.90;99.90
51837;DHT22;38941;53.254;6.600;2022-08-20T03:04:43;17.90;99.90
51837;DHT22;38941;53.254;6.600;2022-08-20T03:06:43;17.90;99.90
51837;DHT22;38941;53.254;6.600;2022-08-20T03:08:45;17.90;99.90
51837;DHT22;38941;53.254;6.600;2022-08-20T03:10:46;17.90;99.90
51837;DHT22;38941;53.254;6.600;2022-08-20T03:12:47;17.80;99.90
51837;DHT22;38941;53.254;6.600;2022-08-20T03:14:47;17.80;99.90
51837;DHT22;38941;53.254;6.600;2022-08-20T03:16:49;17.70;99.90
51837;DHT22;38941;53.254;6.600;2022-08-20T03:18:50;17.70;99.90
51837;DHT22;38941;53.254;6.600;2022-08-20T03:20:51;17.60;99.90
51837;DHT22;38941;53.254;6.600;2022-08-20T03:22:52;17.60;99.90
51837;DHT22;38941;53.254;6.600;2022-08-20T03:24:53;17.60;99.90
51837;DHT22;38941;53.254;6.600;2022-08-20T03:26:54;17.60;99.90
51837;DHT22;38941;53.254;6.600;2022-08-20T03:28:55;17.60;99.90
51837;DHT22;38941;53.254;6.600;2022-08-20T03:30:56;17.60;99.90
51837;DHT22;38941;53.254;6.600;2022-08-20T03:32:58;17.60;99.90
51837;DHT22;38941;53.254;6.600;2022-08-20T03:34:59;17.50;99.90
51837;DHT22;38941;53.254;6.600;2022-08-20T03:37:00;17.50;99.90
51837;DHT22;38941;53.254;6.600;2022-08-20T03:39:04;17.50;99.90
51837;DHT22;38941;53.254;6.600;2022-08-20T03:41:07;17.60;99.90
51837;DHT22;38941;53.254;6.600;2022-08-20T03:43:08;17.50;99.90
51837;DHT22;38941;53.254;6.600;2022-08-20T03:45:10;17.50;99.90
51837;DHT22;38941;53.254;6.600;2022-08-20T03:47:11;17.60;99.90
51837;DHT22;38941;53.254;6.600;2022-08-20T03:49:13;17.50;99.90
51837;DHT22;38941;53.254;6.600;2022-08-20T03:51:15;17.50;99.90
51837;DHT22;38941;53.254;6.600;2022-08-20T03:53:16;17.50;99.90
51837;DHT22;38941;53.254;6.600;2022-08-20T03:55:19;17.50;99.90
51837;DHT22;38941;53.254;6.600;2022-08-20T03:57:21;17.50;99.90
51837;DHT22;38941;53.254;6.600;2022-08-20T03:59:22;17.50;99.90
51837;DHT22;38941;53.254;6.600;2022-08-20T04:01:22;17.50;99.90
51837;DHT22;38941;53.254;6.600;2022-08-20T04:03:24;17.50;99.90
51837;DHT22;38941;53.254;6.600;2022-08-20T04:05:25;17.50;99.90
51837;DHT22;38941;53.254;6.600;2022-08-20T04:07:26;17.50;99.90
51837;DHT22;38941;53.254;6.600;2022-08-20T04:09:27;17.50;99.90
51837;DHT22;38941;53.254;6.600;2022-08-20T04:11:28;17.50;99.90
51837;DHT22;38941;53.254;6.600;2022-08-20T04:13:29;17.50;99.90
51837;DHT22;38941;53.254;6.600;2022-08-20T04:15:30;17.50;99.90
51837;DHT22;38941;53.254;6.600;2022-08-20T04:17:31;17.40;99.90
51837;DHT22;38941;53.254;6.600;2022-08-20T04:19:34;17.40;99.90
51837;DHT22;38941;53.254;6.600;2022-08-20T04:21:35;17.40;99.90
51837;DHT22;38941;53.254;6.600;2022-08-20T04:23:36;17.40;99.90
51837;DHT22;38941;53.254;6.600;2022-08-20T04:25:39;17.40;99.90
51837;DHT22;38941;53.254;6.600;2022-08-20T04:27:40;17.30;99.90
51837;DHT22;38941;53.254;6.600;2022-08-20T04:29:41;17.30;99.90
51837;DHT22;38941;53.254;6.600;2022-08-20T04:31:45;17.30;99.90
51837;DHT22;38941;53.254;6.600;2022-08-20T04:33:45;17.20;99.90
51837;DHT22;38941;53.254;6.600;2022-08-20T04:35:46;17.20;99.90
51837;DHT22;38941;53.254;6.600;2022-08-20T04:37:47;17.20;99.90
51837;DHT22;38941;53.254;6.600;2022-08-20T04:39:49;17.20;99.90
51837;DHT22;38941;53.254;6.600;2022-08-20T04:42:10;17.20;99.90
51837;DHT22;38941;53.254;6.600;2022-08-20T04:44:11;17.10;99.90
51837;DHT22;38941;53.254;6.600;2022-08-20T04:46:11;16.70;99.90
51837;DHT22;38941;53.254;6.600;2022-08-20T04:48:13;17.10;99.90
51837;DHT22;38941;53.254;6.600;2022-08-20T04:50:15;17.10;99.90
51837;DHT22;38941;53.254;6.600;2022-08-20T04:52:15;17.10;99.90
51837;DHT22;38941;53.254;6.600;2022-08-20T04:54:17;17.10;99.90
51837;DHT22;38941;53.254;6.600;2022-08-20T04:56:19;17.10;99.90
51837;DHT22;38941;53.254;6.600;2022-08-20T04:58:25;17.10;99.90
51837;DHT22;38941;53.254;6.600;2022-08-20T05:00:27;17.10;99.90
51837;DHT22;38941;53.254;6.600;2022-08-20T05:02:28;17.10;99.90
51837;DHT22;38941;53.254;6.600;2022-08-20T05:04:30;17.10;99.90
51837;DHT22;38941;53.254;6.600;2022-08-20T05:06:31;17.10;99.90
51837;DHT22;38941;53.254;6.600;2022-08-20T05:08:33;17.10;99.90
51837;DHT22;38941;53.254;6.600;2022-08-20T05:10:35;17.10;99.90
51837;DHT22;38941;53.254;6.600;2022-08-20T05:12:40;17.10;99.90
51837;DHT22;38941;53.254;6.600;2022-08-20T05:14:41;17.10;99.90
51837;DHT22;38941;53.254;6.600;2022-08-20T05:16:42;17.10;99.90
51837;DHT22;38941;53.254;6.600;2022-08-20T05:18:43;17.10;99.90
51837;DHT22;38941;53.254;6.600;2022-08-20T05:20:46;17.10;99.90
51837;DHT22;38941;53.254;6.600;2022-08-20T05:22:47;17.10;99.90
51837;DHT22;38941;53.254;6.600;2022-08-20T05:24:47;17.10;99.90
51837;DHT22;38941;53.254;6.600;2022-08-20T05:26:49;17.10;99.90
51837;DHT22;38941;53.254;6.600;2022-08-20T05:28:50;17.10;99.90
51837;DHT22;38941;53.254;6.600;2022-08-20T05:30:52;17.00;99.90
51837;DHT22;38941;53.254;6.600;2022-08-20T05:32:53;17.00;99.90
51837;DHT22;38941;53.254;6.600;2022-08-20T05:34:53;17.00;99.90
51837;DHT22;38941;53.254;6.600;2022-08-20T05:36:54;17.00;99.90
51837;DHT22;38941;53.254;6.600;2022-08-20T05:38:56;17.00;99.90
51837;DHT22;38941;53.254;6.600;2022-08-20T05:40:58;17.00;99.90
51837;DHT22;38941;53.254;6.600;2022-08-20T05:42:59;17.00;99.90
51837;DHT22;38941;53.254;6.600;2022-08-20T05:45:00;17.00;99.90
51837;DHT22;38941;53.254;6.600;2022-08-20T05:47:03;17.00;99.90
51837;DHT22;38941;53.254;6.600;2022-08-20T05:49:04;17.00;99.90
51837;DHT22;38941;53.254;6.600;2022-08-20T05:51:05;17.00;99.90
51837;DHT22;38941;53.254;6.600;2022-08-20T05:53:06;17.10;99.90
51837;DHT22;38941;53.254;6.600;2022-08-20T05:55:10;17.10;99.90
51837;DHT22;38941;53.254;6.600;2022-08-20T05:57:16;17.20;99.90
51837;DHT22;38941;53.254;6.600;2022-08-20T05:59:18;17.20;99.90
51837;DHT22;38941;53.254;6.600;2022-08-20T06:01:20;17.30;99.90
51837;DHT22;38941;53.254;6.600;2022-08-20T06:03:21;17.30;99.90
51837;DHT22;38941;53.254;6.600;2022-08-20T06:05:42;17.40;99.90
51837;DHT22;38941;53.254;6.600;2022-08-20T06:07:44;17.50;99.90
51837;DHT22;38941;53.254;6.600;2022-08-20T06:09:44;17.60;99.90
51837;DHT22;38941;53.254;6.600;2022-08-20T06:11:46;17.70;99.90
51837;DHT22;38941;53.254;6.600;2022-08-20T06:13:48;17.80;99.90
51837;DHT22;38941;53.254;6.600;2022-08-20T06:15:49;17.80;99.90
51837;DHT22;38941;53.254;6.600;2022-08-20T06:17:49;17.90;99.90
51837;DHT22;38941;53.254;6.600;2022-08-20T06:19:50;18.00;99.90
51837;DHT22;38941;53.254;6.600;2022-08-20T06:21:51;18.10;99.90
51837;DHT22;38941;53.254;6.600;2022-08-20T06:23:53;18.10;99.90
51837;DHT22;38941;53.254;6.600;2022-08-20T06:25:53;18.20;99.90
51837;DHT22;38941;53.254;6.600;2022-08-20T06:27:56;18.30;99.90
51837;DHT22;38941;53.254;6.600;2022-08-20T06:29:57;18.40;99.90
51837;DHT22;38941;53.254;6.600;2022-08-20T06:31:58;18.50;99.90
51837;DHT22;38941;53.254;6.600;2022-08-20T06:33:59;18.60;99.90
51837;DHT22;38941;53.254;6.600;2022-08-20T06:36:00;18.70;99.90
51837;DHT22;38941;53.254;6.600;2022-08-20T06:38:00;18.80;99.90
51837;DHT22;38941;53.254;6.600;2022-08-20T06:40:17;18.90;99.80
51837;DHT22;38941;53.254;6.600;2022-08-20T06:42:20;19.00;99.60
51837;DHT22;38941;53.254;6.600;2022-08-20T06:44:20;19.00;99.50
51837;DHT22;38941;53.254;6.600;2022-08-20T06:46:22;19.10;99.50
51837;DHT22;38941;53.254;6.600;2022-08-20T06:48:23;19.20;99.40
51837;DHT22;38941;53.254;6.600;2022-08-20T06:50:29;19.30;99.30
51837;DHT22;38941;53.254;6.600;2022-08-20T06:52:30;19.30;99.30
51837;DHT22;38941;53.254;6.600;2022-08-20T06:54:32;19.40;99.10
51837;DHT22;38941;53.254;6.600;2022-08-20T06:56:33;19.40;98.90
51837;DHT22;38941;53.254;6.600;2022-08-20T06:58:35;19.50;98.80
51837;DHT22;38941;53.254;6.600;2022-08-20T07:00:38;19.60;98.80
51837;DHT22;38941;53.254;6.600;2022-08-20T07:02:40;19.60;98.70
51837;DHT22;38941;53.254;6.600;2022-08-20T07:04:41;19.70;98.50
51837;DHT22;38941;53.254;6.600;2022-08-20T07:06:42;19.70;98.30
51837;DHT22;38941;53.254;6.600;2022-08-20T07:08:43;19.90;98.30
51837;DHT22;38941;53.254;6.600;2022-08-20T07:10:44;20.00;98.20
51837;DHT22;38941;53.254;6.600;2022-08-20T07:12:45;20.10;97.90
51837;DHT22;38941;53.254;6.600;2022-08-20T07:14:46;20.30;97.80
51837;DHT22;38941;53.254;6.600;2022-08-20T07:16:47;20.40;97.60
51837;DHT22;38941;53.254;6.600;2022-08-20T07:18:48;20.50;97.40
51837;DHT22;38941;53.254;6.600;2022-08-20T07:20:49;20.60;97.30
51837;DHT22;38941;53.254;6.600;2022-08-20T07:22:50;20.70;96.90
51837;DHT22;38941;53.254;6.600;2022-08-20T07:24:52;20.80;96.70
51837;DHT22;38941;53.254;6.600;2022-08-20T07:26:53;20.90;96.50
51837;DHT22;38941;53.254;6.600;2022-08-20T07:28:54;21.00;96.20
51837;DHT22;38941;53.254;6.600;2022-08-20T07:30:55;21.10;96.10
51837;DHT22;38941;53.254;6.600;2022-08-20T07:33:14;21.20;95.80
51837;DHT22;38941;53.254;6.600;2022-08-20T07:35:17;21.40;95.60
51837;DHT22;38941;53.254;6.600;2022-08-20T07:37:19;21.50;95.20
51837;DHT22;38941;53.254;6.600;2022-08-20T07:39:20;21.60;94.90
51837;DHT22;38941;53.254;6.600;2022-08-20T07:41:21;21.70;94.70
51837;DHT22;38941;53.254;6.600;2022-08-20T07:43:22;21.90;94.40
51837;DHT22;38941;53.254;6.600;2022-08-20T07:45:24;22.00;94.00
51837;DHT22;38941;53.254;6.600;2022-08-20T07:47:25;22.00;93.70
51837;DHT22;38941;53.254;6.600;2022-08-20T07:49:27;21.80;93.50
51837;DHT22;38941;53.254;6.600;2022-08-20T07:51:28;21.70;93.60
51837;DHT22;38941;53.254;6.600;2022-08-20T07:53:30;21.60;93.50
51837;DHT22;38941;53.254;6.600;2022-08-20T07:55:34;21.50;93.30
51837;DHT22;38941;53.254;6.600;2022-08-20T07:57:36;21.50;93.40
51837;DHT22;38941;53.254;6.600;2022-08-20T07:59:38;21.50;93.10
51837;DHT22;38941;53.254;6.600;2022-08-20T08:01:38;21.60;93.20
51837;DHT22;38941;53.254;6.600;2022-08-20T08:03:39;21.70;93.20
51837;DHT22;38941;53.254;6.600;2022-08-20T08:05:43;21.90;92.80
51837;DHT22;38941;53.254;6.600;2022-08-20T08:07:45;22.00;92.20
51837;DHT22;38941;53.254;6.600;2022-08-20T08:09:48;22.10;92.00
51837;DHT22;38941;53.254;6.600;2022-08-20T08:11:49;22.30;92.00
51837;DHT22;38941;53.254;6.600;2022-08-20T08:13:50;22.60;92.00
51837;DHT22;38941;53.254;6.600;2022-08-20T08:15:52;22.90;91.60
51837;DHT22;38941;53.254;6.600;2022-08-20T08:17:55;23.00;91.00
51837;DHT22;38941;53.254;6.600;2022-08-20T08:19:57;23.10;90.60
51837;DHT22;38941;53.254;6.600;2022-08-20T08:21:58;23.30;90.50
51837;DHT22;38941;53.254;6.600;2022-08-20T08:24:00;23.50;90.40
51837;DHT22;38941;53.254;6.600;2022-08-20T08:26:03;23.70;90.20
51837;DHT22;38941;53.254;6.600;2022-08-20T08:28:04;23.90;89.80
51837;DHT22;38941;53.254;6.600;2022-08-20T08:30:06;24.10;88.70
51837;DHT22;38941;53.254;6.600;2022-08-20T08:32:08;24.20;88.00
51837;DHT22;38941;53.254;6.600;2022-08-20T08:34:08;24.40;87.70
51837;DHT22;38941;53.254;6.600;2022-08-20T08:36:12;24.50;86.50
51837;DHT22;38941;53.254;6.600;2022-08-20T08:38:13;24.60;86.10
51837;DHT22;38941;53.254;6.600;2022-08-20T08:40:15;24.70;86.10
51837;DHT22;38941;53.254;6.600;2022-08-20T08:42:25;24.80;85.70
51837;DHT22;38941;53.254;6.600;2022-08-20T08:44:35;24.80;84.00
51837;DHT22;38941;53.254;6.600;2022-08-20T08:46:43;24.60;83.50
51837;DHT22;38941;53.254;6.600;2022-08-20T08:48:46;24.40;84.10
51837;DHT22;38941;53.254;6.600;2022-08-20T08:50:50;24.30;84.20
51837;DHT22;38941;53.254;6.600;2022-08-20T08:52:54;24.30;83.90
51837;DHT22;38941;53.254;6.600;2022-08-20T08:55:06;24.50;84.30
51837;DHT22;38941;53.254;6.600;2022-08-20T08:57:09;24.80;83.00
51837;DHT22;38941;53.254;6.600;2022-08-20T08:59:10;25.00;82.90
51837;DHT22;38941;53.254;6.600;2022-08-20T09:01:13;25.20;82.40
51837;DHT22;38941;53.254;6.600;2022-08-20T09:03:33;25.50;81.90
51837;DHT22;38941;53.254;6.600;2022-08-20T09:05:49;25.80;79.70
51837;DHT22;38941;53.254;6.600;2022-08-20T09:07:52;25.70;79.90
51837;DHT22;38941;53.254;6.600;2022-08-20T09:09:53;25.30;80.00
51837;DHT22;38941;53.254;6.600;2022-08-20T09:12:01;25.10;80.00
51837;DHT22;38941;53.254;6.600;2022-08-20T09:14:03;25.20;79.70
51837;DHT22;38941;53.254;6.600;2022-08-20T09:16:04;25.30;80.00
51837;DHT22;38941;53.254;6.600;2022-08-20T09:18:05;25.50;79.90
51837;DHT22;38941;53.254;6.600;2022-08-20T09:20:06;25.70;79.20
51837;DHT22;38941;53.254;6.600;2022-08-20T09:22:11;25.80;77.90
51837;DHT22;38941;53.254;6.600;2022-08-20T09:24:12;26.20;77.30
51837;DHT22;38941;53.254;6.600;2022-08-20T09:26:13;26.50;75.80
51837;DHT22;38941;53.254;6.600;2022-08-20T09:28:14;26.80;74.30
51837;DHT22;38941;53.254;6.600;2022-08-20T09:30:15;26.90;73.30
51837;DHT22;38941;53.254;6.600;2022-08-20T09:32:19;27.00;72.40
51837;DHT22;38941;53.254;6.600;2022-08-20T09:34:20;27.10;72.00
51837;DHT22;38941;53.254;6.600;2022-08-20T09:36:21;27.20;71.80
51837;DHT22;38941;53.254;6.600;2022-08-20T09:38:21;27.30;70.90
51837;DHT22;38941;53.254;6.600;2022-08-20T09:40:22;27.50;70.60
51837;DHT22;38941;53.254;6.600;2022-08-20T09:42:27;27.90;69.60
51837;DHT22;38941;53.254;6.600;2022-08-20T09:44:28;27.80;66.80
51837;DHT22;38941;53.254;6.600;2022-08-20T09:46:28;27.40;67.00
51837;DHT22;38941;53.254;6.600;2022-08-20T09:48:29;27.40;67.50
51837;DHT22;38941;53.254;6.600;2022-08-20T09:50:32;27.60;67.50
51837;DHT22;38941;53.254;6.600;2022-08-20T09:52:46;27.90;66.70
51837;DHT22;38941;53.254;6.600;2022-08-20T09:54:49;27.80;65.40
51837;DHT22;38941;53.254;6.600;2022-08-20T09:56:50;27.60;66.20
51837;DHT22;38941;53.254;6.600;2022-08-20T09:58:52;27.40;66.10
51837;DHT22;38941;53.254;6.600;2022-08-20T10:00:53;27.20;64.70
51837;DHT22;38941;53.254;6.600;2022-08-20T10:02:54;26.90;64.50
51837;DHT22;38941;53.254;6.600;2022-08-20T10:04:56;27.00;64.10
51837;DHT22;38941;53.254;6.600;2022-08-20T10:06:57;27.10;64.60
51837;DHT22;38941;53.254;6.600;2022-08-20T10:08:57;27.40;63.40
51837;DHT22;38941;53.254;6.600;2022-08-20T10:10:59;27.60;62.20
51837;DHT22;38941;53.254;6.600;2022-08-20T10:13:00;27.70;62.50
51837;DHT22;38941;53.254;6.600;2022-08-20T10:15:02;27.60;62.80
51837;DHT22;38941;53.254;6.600;2022-08-20T10:17:03;27.60;62.90
51837;DHT22;38941;53.254;6.600;2022-08-20T10:19:04;28.10;62.00
51837;DHT22;38941;53.254;6.600;2022-08-20T10:21:11;28.50;61.10
51837;DHT22;38941;53.254;6.600;2022-08-20T10:23:12;28.70;57.70
51837;DHT22;38941;53.254;6.600;2022-08-20T10:25:13;28.90;59.60
51837;DHT22;38941;53.254;6.600;2022-08-20T10:27:16;29.10;59.40
51837;DHT22;38941;53.254;6.600;2022-08-20T10:29:16;29.50;58.40
51837;DHT22;38941;53.254;6.600;2022-08-20T10:31:17;29.50;56.90
51837;DHT22;38941;53.254;6.600;2022-08-20T10:33:18;29.30;57.20
51837;DHT22;38941;53.254;6.600;2022-08-20T10:35:20;29.00;57.90
51837;DHT22;38941;53.254;6.600;2022-08-20T10:37:23;28.80;58.30
51837;DHT22;38941;53.254;6.600;2022-08-20T10:39:24;28.80;58.90
51837;DHT22;38941;53.254;6.600;2022-08-20T10:41:25;28.80;58.30
51837;DHT22;38941;53.254;6.600;2022-08-20T10:43:27;28.70;57.90
51837;DHT22;38941;53.254;6.600;2022-08-20T10:45:28;28.50;58.20
51837;DHT22;38941;53.254;6.600;2022-08-20T10:47:31;28.30;58.70
51837;DHT22;38941;53.254;6.600;2022-08-20T10:49:35;28.10;59.50
51837;DHT22;38941;53.254;6.600;2022-08-20T10:51:35;27.90;60.30
51837;DHT22;38941;53.254;6.600;2022-08-20T10:53:36;27.70;60.70
51837;DHT22;38941;53.254;6.600;2022-08-20T10:55:37;27.60;60.50
51837;DHT22;38941;53.254;6.600;2022-08-20T10:57:40;27.40;60.30
51837;DHT22;38941;53.254;6.600;2022-08-20T10:59:42;27.30;60.60
51837;DHT22;38941;53.254;6.600;2022-08-20T11:01:44;27.30;60.90
51837;DHT22;38941;53.254;6.600;2022-08-20T11:03:44;27.30;61.00
51837;DHT22;38941;53.254;6.600;2022-08-20T11:05:46;27.40;61.10
51837;DHT22;38941;53.254;6.600;2022-08-20T11:07:47;27.60;60.70
51837;DHT22;38941;53.254;6.600;2022-08-20T11:09:49;27.90;60.40
51837;DHT22;38941;53.254;6.600;2022-08-20T11:11:49;28.20;59.00
51837;DHT22;38941;53.254;6.600;2022-08-20T11:13:50;28.30;58.60
51837;DHT22;38941;53.254;6.600;2022-08-20T11:15:51;28.70;58.70
51837;DHT22;38941;53.254;6.600;2022-08-20T11:17:52;28.80;58.40
51837;DHT22;38941;53.254;6.600;2022-08-20T11:19:55;28.70;58.10
51837;DHT22;38941;53.254;6.600;2022-08-20T11:21:57;28.60;57.50
51837;DHT22;38941;53.254;6.600;2022-08-20T11:23:57;28.70;56.50
51837;DHT22;38941;53.254;6.600;2022-08-20T11:25:58;28.80;55.90
51837;DHT22;38941;53.254;6.600;2022-08-20T11:27:59;29.00;56.30
51837;DHT22;38941;53.254;6.600;2022-08-20T11:30:00;29.30;56.90
51837;DHT22;38941;53.254;6.600;2022-08-20T11:32:01;29.40;55.30
51837;DHT22;38941;53.254;6.600;2022-08-20T11:34:01;29.50;54.50
51837;DHT22;38941;53.254;6.600;2022-08-20T11:36:02;29.50;54.00
51837;DHT22;38941;53.254;6.600;2022-08-20T11:38:04;29.50;53.80
51837;DHT22;38941;53.254;6.600;2022-08-20T11:40:06;29.40;53.20
51837;DHT22;38941;53.254;6.600;2022-08-20T11:42:09;29.00;53.00
51837;DHT22;38941;53.254;6.600;2022-08-20T11:44:09;28.70;54.10
51837;DHT22;38941;53.254;6.600;2022-08-20T11:46:10;28.70;54.40
51837;DHT22;38941;53.254;6.600;2022-08-20T11:48:11;28.60;54.90
51837;DHT22;38941;53.254;6.600;2022-08-20T11:50:14;28.60;55.30
51837;DHT22;38941;53.254;6.600;2022-08-20T11:52:15;28.50;55.10
51837;DHT22;38941;53.254;6.600;2022-08-20T11:54:16;28.50;55.30
51837;DHT22;38941;53.254;6.600;2022-08-20T11:56:17;28.80;55.00
51837;DHT22;38941;53.254;6.600;2022-08-20T11:58:20;28.80;55.00
51837;DHT22;38941;53.254;6.600;2022-08-20T12:00:21;28.80;54.90
51837;DHT22;38941;53.254;6.600;2022-08-20T12:02:24;28.90;54.20
51837;DHT22;38941;53.254;6.600;2022-08-20T12:04:26;28.80;53.30
51837;DHT22;38941;53.254;6.600;2022-08-20T12:06:27;28.30;53.40
51837;DHT22;38941;53.254;6.600;2022-08-20T12:08:27;28.00;53.20
51837;DHT22;38941;53.254;6.600;2022-08-20T12:10:32;27.70;54.00
51837;DHT22;38941;53.254;6.600;2022-08-20T12:12:33;27.50;53.50
51837;DHT22;38941;53.254;6.600;2022-08-20T12:14:34;27.70;53.80
51837;DHT22;38941;53.254;6.600;2022-08-20T12:16:34;27.80;53.20
51837;DHT22;38941;53.254;6.600;2022-08-20T12:18:35;27.70;53.30
51837;DHT22;38941;53.254;6.600;2022-08-20T12:20:36;27.60;53.50
51837;DHT22;38941;53.254;6.600;2022-08-20T12:22:37;27.50;53.20
51837;DHT22;38941;53.254;6.600;2022-08-20T12:24:38;27.40;53.10
51837;DHT22;38941;53.254;6.600;2022-08-20T12:26:42;27.40;52.80
51837;DHT22;38941;53.254;6.600;2022-08-20T12:28:42;27.60;53.00
51837;DHT22;38941;53.254;6.600;2022-08-20T12:30:44;27.90;53.30
51837;DHT22;38941;53.254;6.600;2022-08-20T12:32:45;28.30;51.60
51837;DHT22;38941;53.254;6.600;2022-08-20T12:34:46;28.60;50.60
51837;DHT22;38941;53.254;6.600;2022-08-20T12:36:47;28.80;51.20
51837;DHT22;38941;53.254;6.600;2022-08-20T12:38:48;29.10;50.60
51837;DHT22;38941;53.254;6.600;2022-08-20T12:40:48;29.30;49.90
51837;DHT22;38941;53.254;6.600;2022-08-20T12:42:51;29.70;51.20
51837;DHT22;38941;53.254;6.600;2022-08-20T12:44:52;30.30;51.90
51837;DHT22;38941;53.254;6.600;2022-08-20T12:47:07;31.00;50.90
51837;DHT22;38941;53.254;6.600;2022-08-20T12:49:08;31.60;50.10
51837;DHT22;38941;53.254;6.600;2022-08-20T12:51:11;32.10;50.10
51837;DHT22;38941;53.254;6.600;2022-08-20T12:53:12;32.30;49.30
51837;DHT22;38941;53.254;6.600;2022-08-20T12:55:15;32.20;49.40
51837;DHT22;38941;53.254;6.600;2022-08-20T12:57:53;32.00;48.00
51837;DHT22;38941;53.254;6.600;2022-08-20T12:59:59;31.90;47.70